createdAt,value
2017-01-04T00:00:43.812Z,995.47
2017-01-04T00:01:43.750Z,995.45
2017-01-04T00:02:43.689Z,995.36
2017-01-04T00:03:43.625Z,995.39
2017-01-04T00:04:43.562Z,995.4
2017-01-04T00:05:43.500Z,995.32
2017-01-04T00:06:43.437Z,995.28
2017-01-04T00:07:43.374Z,995.25
2017-01-04T00:08:43.311Z,995.24
2017-01-04T00:09:43.250Z,995.22
2017-01-04T00:10:43.187Z,995.16
2017-01-04T00:11:43.124Z,995.1
2017-01-04T00:12:43.071Z,994.96
2017-01-04T00:13:43.000Z,995.01
2017-01-04T00:14:42.936Z,995.08
2017-01-04T00:15:42.873Z,995.01
2017-01-04T00:16:42.811Z,994.97
2017-01-04T00:17:42.749Z,995.02
2017-01-04T00:18:42.686Z,994.94
2017-01-04T00:19:42.623Z,995.13
2017-01-04T00:20:42.561Z,995.21
2017-01-04T00:21:42.499Z,995.03
2017-01-04T00:22:42.435Z,995.06
2017-01-04T00:23:42.375Z,995.13
2017-01-04T00:24:42.314Z,995.05
2017-01-04T00:25:42.247Z,994.96
2017-01-04T00:26:42.185Z,994.94
2017-01-04T00:27:42.123Z,994.97
2017-01-04T00:28:42.059Z,995
2017-01-04T00:29:41.998Z,994.99
2017-01-04T00:30:41.934Z,994.96
2017-01-04T00:31:41.882Z,994.83
2017-01-04T00:32:41.810Z,994.86
2017-01-04T00:33:41.746Z,994.9
2017-01-04T00:34:41.683Z,994.69
2017-01-04T00:35:41.622Z,994.78
2017-01-04T00:36:41.559Z,994.75
2017-01-04T00:37:41.495Z,994.86
2017-01-04T00:38:41.434Z,994.77
2017-01-04T00:39:41.372Z,994.79
2017-01-04T00:40:41.308Z,994.81
2017-01-04T00:41:41.448Z,994.75
2017-01-04T00:42:41.184Z,994.76
2017-01-04T00:43:41.120Z,994.59
2017-01-04T00:44:41.060Z,994.6
2017-01-04T00:45:40.996Z,994.67
2017-01-04T00:46:40.935Z,994.45
2017-01-04T00:47:40.872Z,994.47
2017-01-04T00:48:40.809Z,994.48
2017-01-04T00:49:40.757Z,994.35
2017-01-04T00:50:40.685Z,994.34
2017-01-04T00:51:40.620Z,994.51
2017-01-04T00:52:40.559Z,994.21
2017-01-04T00:53:40.496Z,994.31
2017-01-04T00:54:40.433Z,994.34
2017-01-04T00:55:40.371Z,994.26
2017-01-04T00:56:40.308Z,994.31
2017-01-04T00:57:40.247Z,994.28
2017-01-04T00:58:40.183Z,994.3
2017-01-04T00:59:40.121Z,994.24
2017-01-04T01:01:10.351Z,994.45
2017-01-04T01:02:10.285Z,994.53
2017-01-04T01:03:10.223Z,994.57
2017-01-04T01:04:10.160Z,994.53
2017-01-04T01:05:10.097Z,994.45
2017-01-04T01:06:10.035Z,994.39
2017-01-04T01:07:09.972Z,994.35
2017-01-04T01:08:09.908Z,994.43
2017-01-04T01:09:09.846Z,994.35
2017-01-04T01:10:09.784Z,994.34
2017-01-04T01:11:09.721Z,994.56
2017-01-04T01:12:09.658Z,994.54
2017-01-04T01:13:09.596Z,994.64
2017-01-04T01:14:09.534Z,994.68
2017-01-04T01:15:09.471Z,994.72
2017-01-04T01:16:09.409Z,994.72
2017-01-04T01:17:09.346Z,994.73
2017-01-04T01:18:09.284Z,994.74
2017-01-04T01:19:09.220Z,994.77
2017-01-04T01:20:09.158Z,994.83
2017-01-04T01:21:09.096Z,994.81
2017-01-04T01:22:09.032Z,994.86
2017-01-04T01:23:08.970Z,994.83
2017-01-04T01:24:08.908Z,994.88
2017-01-04T01:25:08.845Z,994.86
2017-01-04T01:26:08.782Z,995.05
2017-01-04T01:27:08.720Z,995.09
2017-01-04T01:28:08.658Z,995.14
2017-01-04T01:29:08.595Z,995.17
2017-01-04T01:30:08.531Z,995.34
2017-01-04T01:31:08.469Z,995.13
2017-01-04T01:32:08.407Z,995.26
2017-01-04T01:33:08.343Z,995.2
2017-01-04T01:34:08.281Z,995.42
2017-01-04T01:35:08.220Z,995.42
2017-01-04T01:36:08.157Z,995.51
2017-01-04T01:37:08.091Z,995.48
2017-01-04T01:38:08.031Z,995.52
2017-01-04T01:39:07.968Z,995.52
2017-01-04T01:40:07.906Z,995.7
2017-01-04T01:41:07.842Z,995.6
2017-01-04T01:42:07.781Z,995.67
2017-01-04T01:43:07.718Z,995.75
2017-01-04T01:44:07.655Z,995.8
2017-01-04T01:45:07.592Z,995.76
2017-01-04T01:46:07.530Z,995.8
2017-01-04T01:47:07.468Z,995.9
2017-01-04T01:48:07.405Z,995.96
2017-01-04T01:49:07.342Z,995.92
2017-01-04T01:50:07.280Z,996.1
2017-01-04T01:51:07.216Z,996.1
2017-01-04T01:52:07.165Z,996.12
2017-01-04T01:53:07.091Z,996.05
2017-01-04T01:54:07.029Z,996.11
2017-01-04T01:55:06.966Z,996.1
2017-01-04T01:56:06.907Z,996.11
2017-01-04T01:57:06.840Z,996.1
2017-01-04T01:58:06.779Z,995.95
2017-01-04T01:59:06.715Z,995.98
2017-01-04T02:00:06.653Z,995.95
2017-01-04T02:01:06.590Z,995.95
2017-01-04T02:02:06.528Z,995.91
2017-01-04T02:03:06.465Z,995.84
2017-01-04T02:04:06.402Z,995.84
2017-01-04T02:05:06.340Z,995.83
2017-01-04T02:06:06.277Z,995.84
2017-01-04T02:07:06.215Z,995.8
2017-01-04T02:08:06.152Z,995.79
2017-01-04T02:09:06.090Z,995.82
2017-01-04T02:10:06.046Z,995.79
2017-01-04T02:11:05.963Z,995.77
2017-01-04T02:12:05.901Z,995.76
2017-01-04T02:13:05.838Z,995.75
2017-01-04T02:14:05.776Z,995.81
2017-01-04T02:15:05.715Z,995.76
2017-01-04T02:16:05.653Z,995.54
2017-01-04T02:17:05.588Z,995.35
2017-01-04T02:18:05.525Z,995.19
2017-01-04T02:19:05.463Z,995.08
2017-01-04T02:20:05.399Z,995.09
2017-01-04T02:21:05.338Z,995.03
2017-01-04T02:22:05.275Z,995.02
2017-01-04T02:23:05.212Z,994.95
2017-01-04T02:24:05.150Z,994.83
2017-01-04T02:25:05.086Z,994.75
2017-01-04T02:26:05.025Z,994.73
2017-01-04T02:27:04.961Z,994.6
2017-01-04T02:28:04.899Z,994.62
2017-01-04T02:29:04.837Z,994.6
2017-01-04T02:30:04.773Z,994.6
2017-01-04T02:31:04.710Z,994.57
2017-01-04T02:32:04.649Z,994.59
2017-01-04T02:33:04.585Z,994.45
2017-01-04T02:34:04.524Z,994.52
2017-01-04T02:35:04.462Z,994.47
2017-01-04T02:36:04.399Z,994.35
2017-01-04T02:37:04.335Z,994.37
2017-01-04T02:38:04.278Z,994.44
2017-01-04T02:39:04.211Z,994.39
2017-01-04T02:40:04.148Z,994.36
2017-01-04T02:41:04.087Z,994.52
2017-01-04T02:42:04.023Z,994.56
2017-01-04T02:43:03.960Z,994.54
2017-01-04T02:44:03.898Z,994.48
2017-01-04T02:45:03.834Z,994.28
2017-01-04T02:46:03.770Z,994.3
2017-01-04T02:47:03.710Z,994.3
2017-01-04T02:48:03.647Z,994.25
2017-01-04T02:49:03.585Z,994.27
2017-01-04T02:50:03.521Z,994.2
2017-01-04T02:51:03.459Z,994.25
2017-01-04T02:52:03.397Z,994.41
2017-01-04T02:53:03.334Z,994.37
2017-01-04T02:54:03.270Z,994.33
2017-01-04T02:55:03.208Z,994.57
2017-01-04T02:56:03.148Z,994.35
2017-01-04T02:57:03.083Z,994.36
2017-01-04T02:58:03.020Z,994.43
2017-01-04T02:59:02.957Z,994.48
2017-01-04T03:00:02.895Z,994.44
2017-01-04T03:01:02.831Z,994.39
2017-01-04T03:02:02.780Z,994.27
2017-01-04T03:03:02.706Z,994.18
2017-01-04T03:04:02.646Z,994.26
2017-01-04T03:05:02.582Z,994.21
2017-01-04T03:06:02.518Z,994.09
2017-01-04T03:07:02.455Z,994.21
2017-01-04T03:08:02.393Z,994.19
2017-01-04T03:09:02.331Z,994.18
2017-01-04T03:10:02.269Z,994.27
2017-01-04T03:11:02.207Z,994.23
2017-01-04T03:12:02.143Z,994.19
2017-01-04T03:13:02.081Z,994.18
2017-01-04T03:14:02.017Z,994.24
2017-01-04T03:15:01.955Z,994.18
2017-01-04T03:16:01.893Z,994.11
2017-01-04T03:17:01.831Z,994.15
2017-01-04T03:18:01.767Z,994.07
2017-01-04T03:19:01.703Z,994.03
2017-01-04T03:20:01.651Z,994.11
2017-01-04T03:21:01.580Z,994
2017-01-04T03:22:01.516Z,994
2017-01-04T03:23:01.454Z,993.98
2017-01-04T03:24:01.392Z,993.89
2017-01-04T03:25:01.330Z,993.89
2017-01-04T03:26:01.267Z,993.86
2017-01-04T03:27:01.204Z,993.84
2017-01-04T03:28:01.141Z,993.83
2017-01-04T03:29:01.079Z,993.89
2017-01-04T03:30:01.015Z,993.9
2017-01-04T03:31:00.953Z,993.94
2017-01-04T03:32:00.891Z,993.91
2017-01-04T03:33:00.828Z,993.75
2017-01-04T03:34:00.765Z,993.79
2017-01-04T03:35:00.704Z,993.85
2017-01-04T03:36:00.641Z,993.84
2017-01-04T03:37:00.578Z,993.82
2017-01-04T03:38:00.515Z,993.77
2017-01-04T03:39:00.451Z,993.84
2017-01-04T03:40:00.389Z,993.86
2017-01-04T03:41:00.337Z,993.91
2017-01-04T03:42:00.264Z,993.92
2017-01-04T03:43:00.202Z,993.86
2017-01-04T03:44:00.139Z,993.87
2017-01-04T03:45:00.076Z,993.91
2017-01-04T03:46:00.013Z,993.82
2017-01-04T03:46:59.951Z,993.79
2017-01-04T03:47:59.889Z,993.72
2017-01-04T03:48:59.824Z,993.69
2017-01-04T03:49:59.763Z,993.93
2017-01-04T03:50:59.701Z,993.87
2017-01-04T03:51:59.637Z,993.96
2017-01-04T03:52:59.575Z,993.76
2017-01-04T03:53:59.512Z,993.8
2017-01-04T03:54:59.450Z,993.63
2017-01-04T03:55:59.387Z,993.49
2017-01-04T03:56:59.324Z,993.64
2017-01-04T03:57:59.262Z,993.82
2017-01-04T03:58:59.199Z,993.71
2017-01-04T03:59:59.139Z,993.96
2017-01-04T04:00:59.074Z,993.81
2017-01-04T04:01:59.011Z,993.88
2017-01-04T04:02:58.948Z,993.79
2017-01-04T04:03:58.897Z,993.77
2017-01-04T04:04:58.825Z,993.82
2017-01-04T04:05:58.760Z,993.8
2017-01-04T04:06:58.698Z,993.77
2017-01-04T04:07:58.635Z,993.88
2017-01-04T04:08:58.572Z,993.9
2017-01-04T04:09:58.511Z,993.85
2017-01-04T04:10:58.448Z,993.85
2017-01-04T04:11:58.386Z,993.77
2017-01-04T04:12:58.328Z,993.75
2017-01-04T04:13:58.261Z,993.69
2017-01-04T04:14:58.197Z,993.6
2017-01-04T04:15:58.135Z,993.49
2017-01-04T04:16:58.073Z,993.5
2017-01-04T04:17:58.010Z,993.5
2017-01-04T04:18:57.947Z,993.38
2017-01-04T04:19:57.885Z,993.42
2017-01-04T04:20:57.821Z,993.4
2017-01-04T04:21:57.757Z,993.41
2017-01-04T04:22:57.696Z,993.46
2017-01-04T04:23:57.635Z,993.48
2017-01-04T04:24:57.570Z,993.45
2017-01-04T04:25:57.510Z,993.47
2017-01-04T04:26:57.446Z,993.45
2017-01-04T04:27:57.382Z,993.39
2017-01-04T04:28:57.320Z,993.44
2017-01-04T04:29:57.258Z,993.4
2017-01-04T04:30:57.196Z,993.39
2017-01-04T04:31:57.132Z,993.32
2017-01-04T04:32:57.070Z,993.33
2017-01-04T04:33:57.008Z,993.36
2017-01-04T04:34:56.945Z,993.41
2017-01-04T04:35:56.882Z,993.33
2017-01-04T04:36:56.819Z,993.34
2017-01-04T04:37:56.757Z,993.36
2017-01-04T04:38:56.694Z,993.37
2017-01-04T04:39:56.632Z,993.32
2017-01-04T04:40:56.569Z,993.27
2017-01-04T04:41:56.507Z,993.32
2017-01-04T04:42:56.452Z,993.24
2017-01-04T04:43:56.381Z,993.24
2017-01-04T04:44:56.318Z,993.27
2017-01-04T04:45:56.256Z,993.27
2017-01-04T04:46:56.193Z,993.24
2017-01-04T04:47:56.132Z,993.21
2017-01-04T04:48:56.067Z,993.27
2017-01-04T04:49:56.007Z,993.23
2017-01-04T04:50:55.942Z,993.16
2017-01-04T04:51:55.879Z,993.05
2017-01-04T04:52:55.817Z,993.12
2017-01-04T04:53:55.754Z,993.07
2017-01-04T04:54:55.691Z,993.08
2017-01-04T04:55:55.627Z,993.1
2017-01-04T04:56:55.566Z,993.08
2017-01-04T04:57:55.505Z,993.06
2017-01-04T04:58:55.440Z,993.04
2017-01-04T04:59:55.378Z,993.06
2017-01-04T05:00:55.316Z,992.89
2017-01-04T05:01:55.253Z,992.92
2017-01-04T05:02:55.190Z,992.88
2017-01-04T05:03:55.129Z,992.9
2017-01-04T05:04:55.067Z,992.92
2017-01-04T05:05:55.004Z,992.9
2017-01-04T05:06:54.943Z,992.92
2017-01-04T05:07:54.878Z,992.9
2017-01-04T05:08:54.814Z,992.83
2017-01-04T05:09:54.752Z,992.87
2017-01-04T05:10:54.689Z,992.77
2017-01-04T05:11:54.627Z,992.75
2017-01-04T05:12:54.564Z,992.64
2017-01-04T05:13:54.500Z,992.68
2017-01-04T05:14:54.438Z,992.76
2017-01-04T05:15:54.375Z,993.37
2017-01-04T05:16:54.311Z,993.2
2017-01-04T05:17:54.250Z,993.07
2017-01-04T05:18:54.195Z,992.71
2017-01-04T05:19:54.124Z,992.63
2017-01-04T05:20:54.062Z,992.69
2017-01-04T05:21:54.000Z,992.67
2017-01-04T05:22:53.937Z,992.66
2017-01-04T05:23:53.875Z,992.59
2017-01-04T05:24:53.811Z,992.59
2017-01-04T05:25:53.749Z,992.59
2017-01-04T05:26:53.686Z,992.52
2017-01-04T05:27:53.623Z,992.54
2017-01-04T05:28:53.561Z,992.51
2017-01-04T05:29:53.498Z,992.54
2017-01-04T05:30:53.435Z,992.55
2017-01-04T05:31:53.373Z,992.55
2017-01-04T05:32:53.310Z,992.51
2017-01-04T05:33:53.248Z,992.57
2017-01-04T05:34:53.184Z,992.64
2017-01-04T05:35:53.122Z,992.61
2017-01-04T05:36:53.059Z,992.55
2017-01-04T05:37:52.995Z,992.58
2017-01-04T05:38:52.933Z,992.63
2017-01-04T05:39:52.871Z,992.49
2017-01-04T05:40:52.808Z,992.47
2017-01-04T05:41:52.745Z,992.52
2017-01-04T05:42:52.683Z,992.42
2017-01-04T05:43:52.619Z,992.41
2017-01-04T05:44:52.557Z,992.48
2017-01-04T05:45:52.494Z,992.4
2017-01-04T05:46:52.432Z,992.41
2017-01-04T05:47:52.370Z,992.44
2017-01-04T05:48:52.306Z,992.46
2017-01-04T05:49:52.243Z,992.36
2017-01-04T05:50:52.180Z,992.4
2017-01-04T05:51:52.118Z,992.34
2017-01-04T05:52:52.054Z,992.36
2017-01-04T05:53:51.992Z,992.29
2017-01-04T05:54:51.929Z,992.22
2017-01-04T05:55:51.865Z,992.26
2017-01-04T05:56:51.803Z,992.28
2017-01-04T05:57:51.741Z,992.24
2017-01-04T05:58:51.678Z,992.23
2017-01-04T05:59:51.613Z,992.29
2017-01-04T06:00:51.552Z,992.3
2017-01-04T06:01:51.489Z,992.28
2017-01-04T06:02:51.427Z,992.31
2017-01-04T06:03:51.363Z,992.3
2017-01-04T06:04:51.301Z,992.36
2017-01-04T06:05:51.237Z,992.4
2017-01-04T06:06:51.173Z,992.44
2017-01-04T06:07:51.110Z,992.47
2017-01-04T06:08:51.050Z,992.38
2017-01-04T06:09:50.987Z,992.52
2017-01-04T06:10:50.923Z,992.45
2017-01-04T06:11:50.861Z,992.43
2017-01-04T06:12:50.798Z,992.34
2017-01-04T06:13:50.735Z,992.35
2017-01-04T06:14:50.672Z,992.43
2017-01-04T06:15:50.609Z,992.4
2017-01-04T06:16:50.547Z,992.33
2017-01-04T06:17:50.483Z,992.43
2017-01-04T06:18:50.420Z,992.48
2017-01-04T06:19:50.359Z,992.48
2017-01-04T06:20:50.295Z,992.49
2017-01-04T06:21:50.232Z,992.46
2017-01-04T06:22:50.169Z,992.4
2017-01-04T06:23:50.107Z,992.3
2017-01-04T06:24:50.044Z,992.37
2017-01-04T06:25:49.981Z,992.39
2017-01-04T06:26:49.918Z,992.33
2017-01-04T06:27:49.856Z,992.34
2017-01-04T06:28:49.791Z,992.31
2017-01-04T06:29:49.730Z,992.29
2017-01-04T06:30:49.667Z,992.43
2017-01-04T06:31:49.604Z,992.43
2017-01-04T06:32:49.541Z,992.42
2017-01-04T06:33:49.478Z,992.45
2017-01-04T06:34:49.416Z,992.47
2017-01-04T06:35:49.381Z,992.53
2017-01-04T06:36:49.290Z,992.51
2017-01-04T06:37:49.228Z,992.56
2017-01-04T06:38:49.165Z,992.62
2017-01-04T06:39:49.101Z,992.61
2017-01-04T06:40:49.039Z,992.59
2017-01-04T06:41:48.976Z,992.47
2017-01-04T06:42:48.914Z,992.7
2017-01-04T06:43:48.850Z,992.56
2017-01-04T06:44:48.786Z,992.54
2017-01-04T06:45:48.726Z,992.51
2017-01-04T06:46:48.661Z,992.44
2017-01-04T06:47:48.598Z,992.39
2017-01-04T06:48:48.537Z,992.38
2017-01-04T06:49:48.474Z,992.42
2017-01-04T06:50:48.414Z,992.31
2017-01-04T06:51:48.346Z,992.33
2017-01-04T06:52:48.284Z,992.31
2017-01-04T06:53:48.222Z,992.28
2017-01-04T06:54:48.159Z,992.26
2017-01-04T06:55:48.097Z,992.28
2017-01-04T06:56:48.035Z,992.27
2017-01-04T06:57:47.973Z,992.29
2017-01-04T06:58:47.908Z,992.22
2017-01-04T06:59:47.845Z,992.25
2017-01-04T07:00:47.795Z,992.11
2017-01-04T07:01:47.718Z,992.14
2017-01-04T07:02:47.657Z,992.13
2017-01-04T07:03:47.593Z,992.02
2017-01-04T07:04:47.531Z,991.95
2017-01-04T07:05:47.467Z,991.98
2017-01-04T07:06:47.405Z,992.13
2017-01-04T07:07:47.341Z,992.12
2017-01-04T07:08:47.279Z,992.15
2017-01-04T07:09:47.216Z,992.19
2017-01-04T07:10:47.154Z,992.18
2017-01-04T07:11:47.091Z,992.22
2017-01-04T07:12:47.027Z,992.22
2017-01-04T07:13:46.964Z,992.33
2017-01-04T07:14:46.902Z,992.19
2017-01-04T07:15:46.839Z,992.21
2017-01-04T07:16:46.774Z,992.31
2017-01-04T07:17:46.712Z,992.56
2017-01-04T07:18:46.650Z,992.32
2017-01-04T07:19:46.587Z,992.12
2017-01-04T07:20:46.524Z,992.26
2017-01-04T07:21:46.461Z,992.12
2017-01-04T07:22:46.399Z,992.19
2017-01-04T07:23:46.335Z,992.11
2017-01-04T07:24:46.271Z,992.31
2017-01-04T07:25:46.210Z,992.08
2017-01-04T07:26:46.147Z,992.17
2017-01-04T07:27:46.083Z,992.06
2017-01-04T07:28:46.020Z,992.12
2017-01-04T07:29:45.957Z,991.94
2017-01-04T07:30:45.895Z,991.89
2017-01-04T07:31:45.832Z,991.93
2017-01-04T07:32:45.770Z,992.01
2017-01-04T07:33:45.705Z,992.04
2017-01-04T07:34:45.643Z,992.33
2017-01-04T07:35:45.580Z,992.25
2017-01-04T07:36:45.520Z,992.2
2017-01-04T07:37:45.456Z,992.1
2017-01-04T07:38:45.391Z,992.13
2017-01-04T07:39:45.328Z,992.27
2017-01-04T07:40:45.266Z,992.16
2017-01-04T07:41:45.202Z,992.16
2017-01-04T07:42:45.139Z,992.07
2017-01-04T07:43:45.078Z,992.21
2017-01-04T07:44:45.012Z,992.13
2017-01-04T07:45:44.949Z,992.08
2017-01-04T07:46:44.886Z,992.1
2017-01-04T07:47:44.833Z,991.79
2017-01-04T07:48:44.764Z,991.99
2017-01-04T07:49:44.699Z,992.14
2017-01-04T07:50:44.635Z,992.02
2017-01-04T07:51:44.573Z,991.96
2017-01-04T07:52:44.511Z,992.15
2017-01-04T07:53:44.446Z,992.01
2017-01-04T07:54:44.382Z,992.12
2017-01-04T07:55:44.321Z,992.02
2017-01-04T07:56:44.256Z,991.88
2017-01-04T07:57:44.193Z,991.9
2017-01-04T07:58:44.131Z,991.92
2017-01-04T07:59:44.069Z,992.1
2017-01-04T08:00:44.007Z,991.88
2017-01-04T08:01:43.942Z,991.96
2017-01-04T08:02:43.879Z,991.83
2017-01-04T08:03:43.816Z,991.94
2017-01-04T08:04:43.753Z,991.71
2017-01-04T08:05:43.690Z,991.73
2017-01-04T08:06:43.628Z,991.78
2017-01-04T08:07:43.564Z,991.67
2017-01-04T08:08:43.501Z,991.81
2017-01-04T08:09:43.438Z,991.74
2017-01-04T08:10:43.376Z,991.72
2017-01-04T08:11:43.315Z,991.78
2017-01-04T08:12:43.250Z,991.68
2017-01-04T08:13:43.187Z,991.8
2017-01-04T08:14:43.123Z,991.61
2017-01-04T08:15:43.061Z,991.65
2017-01-04T08:16:42.999Z,991.6
2017-01-04T08:17:42.936Z,991.54
2017-01-04T08:18:42.872Z,991.58
2017-01-04T08:19:42.810Z,991.57
2017-01-04T08:20:42.747Z,991.48
2017-01-04T08:21:42.685Z,991.46
2017-01-04T08:22:42.620Z,991.67
2017-01-04T08:23:42.559Z,991.52
2017-01-04T08:24:42.496Z,991.48
2017-01-04T08:25:42.432Z,991.55
2017-01-04T08:26:42.370Z,991.53
2017-01-04T08:27:42.308Z,991.61
2017-01-04T08:28:42.245Z,991.69
2017-01-04T08:29:42.182Z,991.59
2017-01-04T08:30:42.119Z,991.61
2017-01-04T08:31:42.059Z,991.52
2017-01-04T08:32:41.993Z,991.51
2017-01-04T08:33:41.931Z,991.57
2017-01-04T08:34:41.871Z,991.42
2017-01-04T08:35:41.806Z,991.43
2017-01-04T08:36:41.743Z,991.37
2017-01-04T08:37:41.679Z,991.4
2017-01-04T08:38:41.618Z,991.56
2017-01-04T08:39:41.554Z,991.52
2017-01-04T08:40:41.492Z,991.51
2017-01-04T08:41:41.430Z,991.61
2017-01-04T08:42:41.367Z,991.56
2017-01-04T08:43:41.304Z,991.58
2017-01-04T08:44:41.251Z,991.65
2017-01-04T08:45:41.179Z,991.64
2017-01-04T08:46:41.116Z,991.69
2017-01-04T08:47:41.053Z,991.64
2017-01-04T08:48:40.990Z,991.7
2017-01-04T08:49:40.928Z,991.69
2017-01-04T08:50:40.866Z,991.77
2017-01-04T08:51:40.823Z,991.89
2017-01-04T08:52:40.739Z,991.71
2017-01-04T08:53:40.678Z,991.65
2017-01-04T08:54:40.616Z,991.68
2017-01-04T08:55:40.553Z,991.77
2017-01-04T08:56:40.492Z,991.73
2017-01-04T08:57:40.429Z,991.77
2017-01-04T08:58:40.365Z,991.77
2017-01-04T08:59:40.303Z,991.72
2017-01-04T09:00:40.240Z,991.72
2017-01-04T09:01:40.177Z,991.69
2017-01-04T09:02:40.114Z,991.66
2017-01-04T09:03:40.053Z,991.83
2017-01-04T09:04:39.990Z,991.77
2017-01-04T09:05:39.926Z,991.79
2017-01-04T09:06:39.865Z,991.81
2017-01-04T09:07:39.801Z,991.77
2017-01-04T09:08:39.740Z,991.79
2017-01-04T09:09:39.676Z,991.77
2017-01-04T09:10:39.613Z,991.74
2017-01-04T09:11:39.551Z,991.79
2017-01-04T09:12:39.489Z,991.85
2017-01-04T09:13:39.427Z,991.93
2017-01-04T09:14:39.362Z,991.91
2017-01-04T09:15:39.300Z,991.88
2017-01-04T09:16:39.236Z,992.03
2017-01-04T09:17:39.175Z,991.95
2017-01-04T09:18:39.111Z,991.92
2017-01-04T09:19:39.050Z,991.87
2017-01-04T09:20:38.985Z,991.72
2017-01-04T09:21:38.924Z,991.79
2017-01-04T09:22:38.861Z,991.82
2017-01-04T09:23:38.798Z,991.88
2017-01-04T09:24:38.736Z,992.03
2017-01-04T09:25:38.672Z,992.06
2017-01-04T09:26:38.611Z,992.07
2017-01-04T09:27:38.547Z,991.99
2017-01-04T09:28:38.485Z,991.98
2017-01-04T09:29:38.423Z,992.05
2017-01-04T09:30:38.361Z,992.03
2017-01-04T09:31:38.296Z,992.1
2017-01-04T09:32:38.234Z,992.04
2017-01-04T09:33:38.172Z,992.01
2017-01-04T09:34:38.109Z,991.94
2017-01-04T09:35:38.046Z,991.96
2017-01-04T09:36:37.983Z,991.93
2017-01-04T09:37:37.921Z,991.92
2017-01-04T09:38:37.857Z,992.01
2017-01-04T09:39:37.795Z,992.01
2017-01-04T09:40:37.736Z,991.93
2017-01-04T09:41:37.670Z,991.97
2017-01-04T09:42:37.607Z,992
2017-01-04T09:43:37.551Z,991.98
2017-01-04T09:44:37.481Z,992.02
2017-01-04T09:45:37.419Z,992.08
2017-01-04T09:46:37.362Z,992.11
2017-01-04T09:47:37.293Z,992.07
2017-01-04T09:48:37.231Z,992.04
2017-01-04T09:49:37.167Z,992.05
2017-01-04T09:50:37.104Z,992.02
2017-01-04T09:51:37.043Z,992.05
2017-01-04T09:52:36.980Z,992.09
2017-01-04T09:53:36.918Z,992.19
2017-01-04T09:54:36.855Z,992.03
2017-01-04T09:55:36.791Z,992.05
2017-01-04T09:56:36.730Z,992.05
2017-01-04T09:57:36.665Z,992.01
2017-01-04T09:58:36.604Z,991.89
2017-01-04T09:59:36.543Z,992
2017-01-04T10:00:36.479Z,992.01
2017-01-04T10:01:36.415Z,992.18
2017-01-04T10:02:36.354Z,992.28
2017-01-04T10:03:36.301Z,992.37
2017-01-04T10:04:36.229Z,992.31
2017-01-04T10:05:36.166Z,992.34
2017-01-04T10:06:36.105Z,992.15
2017-01-04T10:07:36.042Z,992.12
2017-01-04T10:08:35.979Z,992.16
2017-01-04T10:09:35.940Z,992.16
2017-01-04T10:10:35.887Z,992.18
2017-01-04T10:11:35.794Z,992.27
2017-01-04T10:12:35.729Z,992.22
2017-01-04T10:13:35.671Z,992.09
2017-01-04T10:14:35.606Z,992.18
2017-01-04T10:15:35.542Z,992.07
2017-01-04T10:16:35.479Z,992.1
2017-01-04T10:17:35.417Z,992.16
2017-01-04T10:18:35.355Z,992.18
2017-01-04T10:19:35.292Z,992.23
2017-01-04T10:20:35.230Z,992.24
2017-01-04T10:21:35.166Z,992.08
2017-01-04T10:22:35.106Z,992.22
2017-01-04T10:23:35.044Z,992.28
2017-01-04T10:24:34.980Z,992.5
2017-01-04T10:25:34.917Z,992.53
2017-01-04T10:26:34.856Z,992.4
2017-01-04T10:27:34.802Z,992.22
2017-01-04T10:28:34.785Z,992.46
2017-01-04T10:29:34.736Z,992.4
2017-01-04T10:30:34.628Z,992.23
2017-01-04T10:31:34.611Z,992.22
2017-01-04T10:32:34.542Z,992.16
2017-01-04T10:33:34.470Z,992.17
2017-01-04T10:34:34.373Z,992.16
2017-01-04T10:35:34.344Z,992.2
2017-01-04T10:36:34.294Z,992.16
2017-01-04T10:37:34.169Z,992.01
2017-01-04T10:38:34.155Z,992.09
2017-01-04T10:39:34.083Z,992.15
2017-01-04T10:40:33.985Z,992.1
2017-01-04T10:41:33.921Z,992.05
2017-01-04T10:42:33.860Z,992.11
2017-01-04T10:43:33.797Z,992.06
2017-01-04T10:44:33.735Z,992.16
2017-01-04T10:45:33.675Z,992.17
2017-01-04T10:46:33.612Z,992.15
2017-01-04T10:47:33.549Z,992.19
2017-01-04T10:48:33.486Z,992.2
2017-01-04T10:49:33.427Z,992.22
2017-01-04T10:50:33.363Z,992.12
2017-01-04T10:51:33.300Z,992.15
2017-01-04T10:52:33.237Z,992.19
2017-01-04T10:53:33.175Z,992.31
2017-01-04T10:54:33.113Z,992.17
2017-01-04T10:55:33.049Z,992.25
2017-01-04T10:56:32.987Z,992.35
2017-01-04T10:57:32.926Z,992.35
2017-01-04T10:58:32.865Z,992.36
2017-01-04T10:59:32.800Z,992.32
2017-01-04T11:00:32.740Z,992.3
2017-01-04T11:01:32.678Z,992.32
2017-01-04T11:02:32.616Z,992.25
2017-01-04T11:03:32.553Z,992.29
2017-01-04T11:04:32.491Z,992.28
2017-01-04T11:05:32.429Z,992.35
2017-01-04T11:06:32.367Z,992.46
2017-01-04T11:07:32.304Z,992.45
2017-01-04T11:08:32.241Z,992.18
2017-01-04T11:09:32.179Z,992.36
2017-01-04T11:10:32.116Z,992.33
2017-01-04T11:11:32.093Z,992.65
2017-01-04T11:12:31.992Z,992.46
2017-01-04T11:13:31.929Z,992.47
2017-01-04T11:14:31.866Z,992.6
2017-01-04T11:15:31.804Z,992.48
2017-01-04T11:16:31.740Z,992.44
2017-01-04T11:17:31.676Z,992.49
2017-01-04T11:18:31.613Z,992.67
2017-01-04T11:19:31.552Z,992.72
2017-01-04T11:20:31.487Z,992.68
2017-01-04T11:21:31.423Z,992.68
2017-01-04T11:22:31.360Z,992.75
2017-01-04T11:23:31.296Z,992.68
2017-01-04T11:24:31.230Z,992.62
2017-01-04T11:25:31.167Z,992.87
2017-01-04T11:26:31.102Z,992.82
2017-01-04T11:27:31.081Z,992.5
2017-01-04T11:28:31.323Z,992.79
2017-01-04T11:29:30.908Z,992.47
2017-01-04T11:30:30.845Z,992.46
2017-01-04T11:31:30.780Z,992.4
2017-01-04T11:32:30.715Z,992.37
2017-01-04T11:33:30.650Z,992.39
2017-01-04T11:34:30.586Z,992.48
2017-01-04T11:35:30.521Z,992.52
2017-01-04T11:36:30.457Z,992.42
2017-01-04T11:37:30.420Z,992.54
2017-01-04T11:38:30.333Z,992.54
2017-01-04T11:39:30.281Z,992.5
2017-01-04T11:40:30.200Z,992.51
2017-01-04T11:41:30.206Z,992.47
2017-01-04T11:42:30.112Z,992.56
2017-01-04T11:43:30.027Z,992.6
2017-01-04T11:44:29.996Z,992.56
2017-01-04T11:45:29.928Z,992.6
2017-01-04T11:46:29.852Z,992.6
2017-01-04T11:47:29.805Z,992.63
2017-01-04T11:48:29.746Z,992.65
2017-01-04T11:49:29.758Z,992.58
2017-01-04T11:50:29.571Z,992.65
2017-01-04T11:51:29.548Z,992.65
2017-01-04T11:52:29.435Z,992.6
2017-01-04T11:53:29.378Z,992.59
2017-01-04T11:54:29.305Z,992.59
2017-01-04T11:55:29.244Z,992.7
2017-01-04T11:56:29.181Z,992.55
2017-01-04T11:57:29.115Z,992.57
2017-01-04T11:58:29.054Z,992.62
2017-01-04T11:59:28.990Z,992.42
2017-01-04T12:00:28.933Z,992.42
2017-01-04T12:01:28.863Z,992.51
2017-01-04T12:02:28.798Z,992.52
2017-01-04T12:03:28.747Z,992.59
2017-01-04T12:04:28.674Z,992.63
2017-01-04T12:05:28.611Z,992.62
2017-01-04T12:06:28.548Z,992.66
2017-01-04T12:07:28.485Z,992.66
2017-01-04T12:08:28.431Z,992.64
2017-01-04T12:09:28.358Z,992.52
2017-01-04T12:10:28.296Z,992.67
2017-01-04T12:11:28.241Z,992.56
2017-01-04T12:12:28.370Z,992.56
2017-01-04T12:13:28.106Z,992.6
2017-01-04T12:14:28.042Z,992.59
2017-01-04T12:15:27.978Z,992.57
2017-01-04T12:16:27.917Z,992.51
2017-01-04T12:17:27.854Z,992.52
2017-01-04T12:18:27.792Z,992.43
2017-01-04T12:19:27.728Z,992.47
2017-01-04T12:20:27.665Z,992.47
2017-01-04T12:21:27.601Z,992.51
2017-01-04T12:22:27.540Z,992.51
2017-01-04T12:23:27.477Z,992.56
2017-01-04T12:24:27.435Z,992.5
2017-01-04T12:25:27.352Z,992.39
2017-01-04T12:26:27.288Z,992.38
2017-01-04T12:27:27.226Z,992.42
2017-01-04T12:28:27.162Z,992.43
2017-01-04T12:29:27.101Z,992.55
2017-01-04T12:30:27.043Z,992.53
2017-01-04T12:31:26.975Z,992.51